West Bend, WI (53090)

6:32 PM CST on February 06, 2016 (GMT -0600)
The Core | | Change Station
CLOSE
Current Station
Personal Weather Station
Location: West Bend, WI
Elevation: 942 ft
Nearby Weather Stations

Elev 942 ft 43.43 °N, 88.19 °W | Updated 5 seconds ago

Clear
Clear
29.8 °F
Feels Like 30 °F
N
2.9
Wind Variable Wind from WSW
Gusts 4.9 mph

Today
High -- | Low -- °F
--% Chance of Precip.
Yesterday
High -- | Low -- °F
Precip. -- in
Pressure 30.08 in
Visibility 10.0 miles
Clouds Clear
Windchill 30 °F
Dew Point 23 °F
Humidity 74%
Rainfall 0.00 in
Snow Depth Not available.
7:03 AM 5:10 PM
Waning Crescent, 3% visible
METAR KETB 070010Z AUTO 22006KT 10SM CLR M01/M04 A3008 RMK AO2
Pressure 30.08 in
Visibility 10.0 miles
Clouds Clear
Windchill 30 °F
Dew Point 23 °F
Humidity 74%
Rainfall 0.00 in
Snow Depth Not available.
7:03 AM 5:10 PM
Waning Crescent, 3% visible
METAR KETB 070010Z AUTO 22006KT 10SM CLR M01/M04 A3008 RMK AO2

10-Day Weather Forecast

Almanac

Astronomy

Feb. 06, 2016 Rise Set
Actual Time
Civil Twilight
Nautical Twilight
Astronomical Twilight
Moon
Length of Visible Light
Length of Day
Tomorrow will be .
, % of the Moon is Illuminated

Today's Extremes

State Highs State Lows

Community

WunderPhotos

Upload Photos

1,891,108 photos uploaded!

WunderBlog® & News

Nearby

Air Quality

  Air Quality AQ Index Pollutant
Not available.

Snow Depth

Station Depth Elevation

Earthquake Activity

City Distance Mag. Time & Date
Minimum magnitude displayed is 2.5.

Coastal Water Temperatures

Place Temperature

Stations

Nearby Weather Stations

Station Location Temp. Windchill Dew Point Humidity Wind Precip. Elev Updated Type
                   

Watches & Warnings

There are currently no watches in effect.